createdAt,value
2023-10-16T00:00:04.962Z,18.47
2023-10-16T00:01:08.598Z,18.48
2023-10-16T00:02:21.212Z,18.48
2023-10-16T00:03:34.594Z,18.47
2023-10-16T00:04:37.477Z,18.47
2023-10-16T00:05:51.058Z,18.48
2023-10-16T00:07:03.662Z,18.47
2023-10-16T00:08:07.144Z,18.48
2023-10-16T00:09:19.940Z,18.47
2023-10-16T00:10:33.544Z,18.47
2023-10-16T00:11:36.248Z,18.47
2023-10-16T00:12:49.631Z,18.45
2023-10-16T00:14:02.319Z,18.45
2023-10-16T00:15:16.067Z,18.47
2023-10-16T00:16:18.839Z,18.48
2023-10-16T00:17:32.713Z,18.48
2023-10-16T00:18:35.594Z,18.47
2023-10-16T00:19:49.062Z,18.47
2023-10-16T00:21:01.704Z,18.47
2023-10-16T00:22:15.072Z,18.44
2023-10-16T00:23:19.478Z,18.45
2023-10-16T00:24:33.232Z,18.44
2023-10-16T00:25:46.031Z,18.45
2023-10-16T00:26:49.551Z,18.45
2023-10-16T00:28:02.157Z,18.44
2023-10-16T00:29:15.550Z,18.45
2023-10-16T00:30:18.262Z,18.45
2023-10-16T00:31:32.151Z,18.45
2023-10-16T00:32:44.872Z,18.45
2023-10-16T00:33:48.581Z,18.44
2023-10-16T00:35:01.346Z,18.44
2023-10-16T00:36:15.072Z,18.44
2023-10-16T00:37:17.784Z,18.44
2023-10-16T00:38:31.069Z,18.45
2023-10-16T00:39:43.790Z,18.44
2023-10-16T00:40:57.082Z,18.43
2023-10-16T00:41:59.860Z,18.44
2023-10-16T00:43:13.060Z,18.43
2023-10-16T00:44:26.983Z,18.43
2023-10-16T00:45:32.062Z,18.44
2023-10-16T00:46:44.839Z,18.44
2023-10-16T00:47:58.604Z,18.44
2023-10-16T00:49:01.420Z,18.43
2023-10-16T00:50:15.073Z,18.43
2023-10-16T00:51:39.484Z,18.41
2023-10-16T00:52:34.589Z,18.41
2023-10-16T00:53:47.179Z,18.44
2023-10-16T00:54:50.605Z,18.44
2023-10-16T00:56:03.328Z,18.44
2023-10-16T00:57:16.580Z,18.43
2023-10-16T00:58:19.323Z,18.44
2023-10-16T00:59:32.562Z,18.44
2023-10-16T01:00:45.247Z,18.43
2023-10-16T01:01:58.549Z,18.44
2023-10-16T01:03:01.316Z,18.44
2023-10-16T01:04:14.646Z,18.45
2023-10-16T01:05:27.460Z,18.43
2023-10-16T01:06:31.622Z,18.43
2023-10-16T01:07:44.365Z,18.44
2023-10-16T01:08:57.557Z,18.4
2023-10-16T01:10:00.265Z,18.41
2023-10-16T01:11:13.589Z,18.41
2023-10-16T01:12:26.292Z,18.4
2023-10-16T01:13:40.104Z,18.41
2023-10-16T01:14:42.813Z,18.43
2023-10-16T01:15:56.635Z,18.43
2023-10-16T01:17:09.415Z,18.4
2023-10-16T01:18:13.068Z,18.45
2023-10-16T01:19:25.709Z,18.41
2023-10-16T01:20:39.103Z,18.43
2023-10-16T01:21:41.831Z,18.41
2023-10-16T01:22:55.592Z,18.38
2023-10-16T01:24:08.273Z,18.4
2023-10-16T01:25:11.571Z,18.41
2023-10-16T01:26:24.221Z,18.41
2023-10-16T01:27:37.610Z,18.4
2023-10-16T01:28:50.306Z,18.41
2023-10-16T01:29:54.066Z,18.4
2023-10-16T01:31:06.729Z,18.37
2023-10-16T01:32:20.080Z,18.38
2023-10-16T01:33:22.818Z,18.38
2023-10-16T01:34:37.496Z,18.41
2023-10-16T01:35:50.482Z,18.37
2023-10-16T01:36:54.139Z,18.37
2023-10-16T01:38:06.887Z,18.4
2023-10-16T01:39:20.601Z,18.38
2023-10-16T01:40:23.375Z,18.4
2023-10-16T01:41:36.586Z,18.41
2023-10-16T01:42:49.285Z,18.4
2023-10-16T01:43:53.069Z,18.38
2023-10-16T01:45:05.766Z,18.38
2023-10-16T01:46:20.624Z,18.38
2023-10-16T01:47:23.647Z,18.38
2023-10-16T01:48:37.143Z,18.37
2023-10-16T01:49:49.883Z,18.37
2023-10-16T01:50:55.101Z,18.36
2023-10-16T01:52:07.741Z,18.38
2023-10-16T01:53:21.073Z,18.41
2023-10-16T01:54:24.112Z,18.38
2023-10-16T01:55:37.580Z,18.38
2023-10-16T01:56:50.217Z,18.37
2023-10-16T01:57:53.639Z,18.38
2023-10-16T01:59:06.434Z,18.37
2023-10-16T02:00:20.111Z,18.37
2023-10-16T02:01:22.989Z,18.4
2023-10-16T02:02:37.160Z,18.4
2023-10-16T02:03:51.516Z,18.37
2023-10-16T02:04:55.094Z,18.36
2023-10-16T02:06:07.734Z,18.36
2023-10-16T02:07:21.095Z,18.37
2023-10-16T02:08:23.782Z,18.36
2023-10-16T02:09:37.153Z,18.37
2023-10-16T02:10:49.922Z,18.37
2023-10-16T02:12:03.605Z,18.37
2023-10-16T02:13:06.312Z,18.37
2023-10-16T02:14:19.597Z,18.37
2023-10-16T02:15:32.260Z,18.36
2023-10-16T02:16:36.188Z,18.36
2023-10-16T02:17:48.939Z,18.36
2023-10-16T02:19:02.592Z,18.34
2023-10-16T02:20:05.321Z,18.34
2023-10-16T02:21:18.655Z,18.33
2023-10-16T02:22:31.361Z,18.34
2023-10-16T02:23:35.116Z,18.34
2023-10-16T02:24:47.776Z,18.33
2023-10-16T02:26:01.100Z,18.34
2023-10-16T02:27:14.278Z,18.34
2023-10-16T02:28:18.120Z,18.31
2023-10-16T02:29:30.747Z,18.36
2023-10-16T02:30:44.129Z,18.31
2023-10-16T02:31:47.071Z,18.36
2023-10-16T02:33:00.634Z,18.36
2023-10-16T02:34:13.420Z,18.31
2023-10-16T02:35:17.111Z,18.31
2023-10-16T02:36:29.828Z,18.31
2023-10-16T02:37:43.123Z,18.3
2023-10-16T02:38:45.827Z,18.33
2023-10-16T02:39:59.111Z,18.31
2023-10-16T02:41:11.753Z,18.3
2023-10-16T02:42:25.133Z,18.33
2023-10-16T02:43:27.897Z,18.31
2023-10-16T02:44:41.121Z,18.3
2023-10-16T02:45:53.817Z,18.3
2023-10-16T02:46:57.638Z,18.3
2023-10-16T02:48:10.456Z,18.3
2023-10-16T02:49:24.085Z,18.3
2023-10-16T02:50:26.833Z,18.3
2023-10-16T02:51:40.148Z,18.31
2023-10-16T02:52:52.865Z,18.31
2023-10-16T02:54:06.084Z,18.29
2023-10-16T02:55:08.772Z,18.31
2023-10-16T02:56:22.086Z,18.3
2023-10-16T02:57:34.801Z,18.29
2023-10-16T02:58:38.139Z,18.31
2023-10-16T02:59:50.745Z,18.27
2023-10-16T03:01:04.130Z,18.29
2023-10-16T03:02:16.914Z,18.29
2023-10-16T03:03:22.152Z,18.3
2023-10-16T03:04:34.910Z,18.31
2023-10-16T03:05:48.616Z,18.26
2023-10-16T03:06:51.354Z,18.27
2023-10-16T03:08:05.128Z,18.31
2023-10-16T03:09:17.809Z,18.29
2023-10-16T03:10:21.653Z,18.27
2023-10-16T03:11:34.340Z,18.3
2023-10-16T03:12:48.127Z,18.29
2023-10-16T03:13:52.097Z,18.27
2023-10-16T03:15:06.609Z,18.27
2023-10-16T03:16:09.316Z,18.3
2023-10-16T03:17:22.609Z,18.29
2023-10-16T03:18:35.499Z,18.29
2023-10-16T03:19:49.133Z,18.27
2023-10-16T03:20:51.817Z,18.29
2023-10-16T03:22:05.126Z,18.27
2023-10-16T03:23:17.771Z,18.26
2023-10-16T03:24:21.147Z,18.26
2023-10-16T03:25:33.921Z,18.29
2023-10-16T03:26:47.666Z,18.29
2023-10-16T03:27:51.993Z,18.26
2023-10-16T03:29:05.659Z,18.26
2023-10-16T03:30:18.479Z,18.29
2023-10-16T03:31:22.278Z,18.29
2023-10-16T03:32:35.286Z,18.27
2023-10-16T03:34:08.649Z,18.26
2023-10-16T03:34:51.599Z,18.27
2023-10-16T03:36:04.225Z,18.29
2023-10-16T03:37:17.637Z,18.27
2023-10-16T03:38:30.274Z,18.3
2023-10-16T03:39:35.303Z,18.29
2023-10-16T03:40:50.099Z,18.29
2023-10-16T03:41:53.627Z,18.29
2023-10-16T03:43:06.409Z,18.3
2023-10-16T03:44:20.122Z,18.3
2023-10-16T03:45:22.863Z,18.29
2023-10-16T03:46:36.621Z,18.27
2023-10-16T03:47:50.495Z,18.3
2023-10-16T03:48:54.163Z,18.26
2023-10-16T03:50:06.785Z,18.3
2023-10-16T03:51:20.142Z,18.27
2023-10-16T03:52:22.871Z,18.27
2023-10-16T03:53:36.117Z,18.26
2023-10-16T03:54:48.889Z,18.24
2023-10-16T03:55:52.615Z,18.24
2023-10-16T03:57:05.283Z,18.26
2023-10-16T03:58:18.638Z,18.24
2023-10-16T03:59:31.278Z,18.26
2023-10-16T04:00:34.664Z,18.27
2023-10-16T04:01:47.388Z,18.24
2023-10-16T04:03:01.424Z,18.26
2023-10-16T04:04:04.582Z,18.27
2023-10-16T04:05:18.147Z,18.26
2023-10-16T04:06:30.853Z,18.26
2023-10-16T04:07:34.643Z,18.26
2023-10-16T04:08:47.302Z,18.27
2023-10-16T04:10:03.491Z,18.26
2023-10-16T04:11:07.854Z,18.26
2023-10-16T04:12:21.709Z,18.29
2023-10-16T04:13:24.714Z,18.26
2023-10-16T04:14:38.151Z,18.29
2023-10-16T04:15:50.871Z,18.27
2023-10-16T04:16:54.693Z,18.29
2023-10-16T04:18:07.598Z,18.27
2023-10-16T04:19:21.164Z,18.27
2023-10-16T04:20:23.870Z,18.26
2023-10-16T04:21:37.159Z,18.27
2023-10-16T04:22:49.821Z,18.26
2023-10-16T04:23:53.158Z,18.27
2023-10-16T04:25:05.841Z,18.3
2023-10-16T04:26:19.105Z,18.3
2023-10-16T04:27:31.751Z,18.29
2023-10-16T04:28:35.120Z,18.31
2023-10-16T04:29:47.769Z,18.3
2023-10-16T04:31:01.223Z,18.3
2023-10-16T04:32:04.061Z,18.3
2023-10-16T04:33:17.640Z,18.29
2023-10-16T04:34:30.267Z,18.31
2023-10-16T04:35:33.741Z,18.31
2023-10-16T04:36:46.291Z,18.31
2023-10-16T04:37:59.669Z,18.33
2023-10-16T04:39:12.066Z,18.33
2023-10-16T04:40:15.677Z,18.31
2023-10-16T04:41:28.336Z,18.31
2023-10-16T04:42:42.243Z,18.33
2023-10-16T04:43:45.118Z,18.33
2023-10-16T04:44:58.668Z,18.36
2023-10-16T04:46:11.438Z,18.36
2023-10-16T04:47:15.142Z,18.37
2023-10-16T04:48:27.786Z,18.37
2023-10-16T04:49:41.159Z,18.37
2023-10-16T04:51:16.585Z,18.37
2023-10-16T04:51:56.653Z,18.36
2023-10-16T04:53:10.428Z,18.37
2023-10-16T04:54:23.650Z,18.38
2023-10-16T04:55:26.434Z,18.41
2023-10-16T04:56:40.165Z,18.41
2023-10-16T04:57:52.814Z,18.41
2023-10-16T04:58:56.162Z,18.45
2023-10-16T05:00:08.501Z,18.54
2023-10-16T05:01:21.686Z,18.66
2023-10-16T05:02:34.037Z,18.77
2023-10-16T05:03:37.323Z,18.87
2023-10-16T05:04:49.880Z,19.01
2023-10-16T05:06:03.135Z,19.12
2023-10-16T05:07:05.694Z,19.22
2023-10-16T05:08:19.190Z,19.29
2023-10-16T05:09:32.549Z,19.35
2023-10-16T05:10:36.161Z,19.4
2023-10-16T05:11:48.590Z,19.45
2023-10-16T05:13:01.641Z,19.49
2023-10-16T05:14:14.040Z,19.59
2023-10-16T05:15:17.133Z,19.63
2023-10-16T05:16:29.560Z,19.68
2023-10-16T05:17:42.676Z,19.73
2023-10-16T05:18:45.233Z,19.78
2023-10-16T05:19:58.681Z,19.77
2023-10-16T05:21:11.077Z,19.74
2023-10-16T05:22:24.154Z,19.8
2023-10-16T05:23:26.622Z,19.81
2023-10-16T05:24:39.664Z,19.87
2023-10-16T05:25:54.859Z,19.93
2023-10-16T05:26:58.682Z,19.94
2023-10-16T05:28:10.964Z,19.98
2023-10-16T05:29:30.797Z,20.06
2023-10-16T05:30:28.624Z,20.07
2023-10-16T05:31:41.712Z,20.15
2023-10-16T05:32:44.276Z,20.17
2023-10-16T05:33:57.673Z,20.21
2023-10-16T05:35:10.297Z,20.25
2023-10-16T05:36:23.200Z,20.28
2023-10-16T05:37:27.911Z,20.31
2023-10-16T05:38:41.208Z,20.35
2023-10-16T05:39:43.638Z,20.38
2023-10-16T05:40:56.644Z,20.38
2023-10-16T05:42:09.097Z,20.42
2023-10-16T05:43:22.148Z,20.44
2023-10-16T05:44:24.946Z,20.45
2023-10-16T05:45:38.209Z,20.46
2023-10-16T05:46:50.655Z,20.49
2023-10-16T05:47:54.211Z,20.55
2023-10-16T05:49:06.591Z,20.55
2023-10-16T05:50:19.688Z,20.57
2023-10-16T05:51:22.201Z,20.61
2023-10-16T05:52:35.200Z,20.64
2023-10-16T05:53:47.562Z,20.66
2023-10-16T05:55:00.706Z,20.68
2023-10-16T05:56:03.162Z,20.7
2023-10-16T05:57:16.147Z,20.72
2023-10-16T05:58:28.424Z,20.73
2023-10-16T05:59:41.644Z,20.78
2023-10-16T06:00:44.098Z,20.8
2023-10-16T06:01:57.239Z,20.82
2023-10-16T06:03:09.804Z,20.83
2023-10-16T06:04:13.379Z,20.85
2023-10-16T06:05:25.938Z,20.9
2023-10-16T06:06:40.650Z,20.9
2023-10-16T06:07:43.153Z,20.92
2023-10-16T06:08:56.173Z,20.95
2023-10-16T06:10:08.473Z,20.97
2023-10-16T06:11:11.692Z,21.0
2023-10-16T06:12:24.218Z,21.03
2023-10-16T06:13:38.620Z,21.03
2023-10-16T06:14:40.963Z,21.04
2023-10-16T06:15:55.689Z,21.07
2023-10-16T06:17:08.112Z,21.1
2023-10-16T06:18:11.158Z,21.11
2023-10-16T06:19:23.388Z,21.11
2023-10-16T06:20:36.648Z,21.14
2023-10-16T06:21:39.028Z,21.14
2023-10-16T06:22:52.174Z,21.17
2023-10-16T06:24:04.471Z,21.2
2023-10-16T06:25:17.725Z,21.23
2023-10-16T06:26:20.070Z,21.23
2023-10-16T06:27:33.240Z,21.24
2023-10-16T06:28:45.592Z,21.29
2023-10-16T06:29:48.678Z,21.29
2023-10-16T06:31:00.955Z,21.31
2023-10-16T06:32:14.197Z,21.29
2023-10-16T06:33:26.521Z,21.34
2023-10-16T06:34:30.808Z,21.33
2023-10-16T06:35:43.154Z,21.34
2023-10-16T06:36:56.205Z,21.34
2023-10-16T06:37:58.761Z,21.34
2023-10-16T06:39:11.694Z,21.37
2023-10-16T06:40:23.909Z,21.39
2023-10-16T06:41:27.166Z,21.39
2023-10-16T06:42:39.477Z,21.41
2023-10-16T06:44:12.171Z,21.43
2023-10-16T06:45:24.414Z,21.43
2023-10-16T06:46:07.166Z,21.44
2023-10-16T06:47:20.180Z,21.46
2023-10-16T06:48:32.369Z,21.47
2023-10-16T06:49:45.675Z,21.47
2023-10-16T06:50:48.067Z,21.51
2023-10-16T06:52:01.213Z,21.53
2023-10-16T06:53:13.555Z,21.53
2023-10-16T06:54:16.691Z,21.54
2023-10-16T06:55:28.953Z,21.54
2023-10-16T06:56:41.698Z,21.57
2023-10-16T06:57:53.935Z,21.55
2023-10-16T06:58:57.190Z,21.54
2023-10-16T07:00:09.235Z,21.57
2023-10-16T07:01:22.269Z,21.54
2023-10-16T07:02:24.661Z,21.54
2023-10-16T07:03:37.757Z,21.54
2023-10-16T07:04:50.167Z,21.57
2023-10-16T07:06:03.284Z,21.54
2023-10-16T07:07:05.739Z,21.57
2023-10-16T07:08:18.965Z,21.54
2023-10-16T07:09:31.541Z,21.55
2023-10-16T07:10:34.689Z,21.58
2023-10-16T07:11:47.191Z,21.58
2023-10-16T07:13:00.886Z,21.57
2023-10-16T07:14:03.359Z,21.57
2023-10-16T07:15:16.227Z,21.6
2023-10-16T07:16:28.510Z,21.58
2023-10-16T07:17:41.739Z,21.62
2023-10-16T07:18:44.244Z,21.6
2023-10-16T07:19:57.222Z,21.61
2023-10-16T07:21:09.423Z,21.62
2023-10-16T07:22:12.705Z,21.62
2023-10-16T07:23:24.894Z,21.61
2023-10-16T07:24:37.719Z,21.61
2023-10-16T07:25:50.097Z,21.64
2023-10-16T07:26:53.201Z,21.65
2023-10-16T07:28:05.725Z,21.64
2023-10-16T07:29:18.721Z,21.65
2023-10-16T07:30:21.074Z,21.64
2023-10-16T07:31:34.235Z,21.65
2023-10-16T07:32:46.612Z,21.67
2023-10-16T07:33:59.728Z,21.67
2023-10-16T07:35:02.168Z,21.67
2023-10-16T07:36:15.198Z,21.67
2023-10-16T07:37:27.354Z,21.67
2023-10-16T07:38:30.737Z,21.7
2023-10-16T07:39:42.954Z,21.7
2023-10-16T07:40:56.224Z,21.71
2023-10-16T07:42:08.368Z,21.7
2023-10-16T07:43:11.196Z,21.7
2023-10-16T07:44:23.346Z,21.71
2023-10-16T07:45:36.786Z,21.7
2023-10-16T07:46:39.068Z,21.72
2023-10-16T07:47:52.277Z,21.74
2023-10-16T07:49:04.578Z,21.74
2023-10-16T07:50:17.708Z,21.74
2023-10-16T07:51:20.257Z,21.78
2023-10-16T07:52:33.246Z,21.74
2023-10-16T07:53:45.458Z,21.77
2023-10-16T07:54:48.800Z,21.77
2023-10-16T07:56:01.121Z,21.77
2023-10-16T07:57:14.222Z,21.81
2023-10-16T07:58:26.514Z,21.78
2023-10-16T07:59:29.730Z,21.8
2023-10-16T08:02:09.335Z,21.8
2023-10-16T08:03:02.326Z,21.81
2023-10-16T08:04:15.708Z,21.81
2023-10-16T08:05:18.151Z,21.84
2023-10-16T08:06:31.140Z,21.87
2023-10-16T08:07:43.507Z,21.87
2023-10-16T08:08:56.635Z,21.91
2023-10-16T08:09:59.345Z,21.88
2023-10-16T08:11:12.665Z,21.91
2023-10-16T08:12:24.906Z,21.9
2023-10-16T08:13:28.173Z,21.91
2023-10-16T08:14:40.334Z,21.9
2023-10-16T08:15:53.395Z,21.91
2023-10-16T08:16:55.978Z,21.9
2023-10-16T08:18:09.293Z,21.9
2023-10-16T08:19:21.760Z,21.9
2023-10-16T08:20:34.679Z,21.92
2023-10-16T08:21:37.073Z,21.91
2023-10-16T08:22:50.685Z,21.91
2023-10-16T08:24:03.034Z,21.94
2023-10-16T08:25:06.253Z,21.92
2023-10-16T08:26:18.594Z,21.92
2023-10-16T08:27:31.676Z,21.94
2023-10-16T08:28:33.953Z,21.94
2023-10-16T08:29:47.167Z,21.92
2023-10-16T08:30:59.462Z,21.92
2023-10-16T08:32:12.641Z,21.92
2023-10-16T08:33:15.065Z,21.94
2023-10-16T08:34:28.460Z,21.95
2023-10-16T08:35:41.043Z,21.97
2023-10-16T08:36:44.162Z,21.95
2023-10-16T08:37:56.471Z,21.95
2023-10-16T08:39:09.648Z,21.97
2023-10-16T08:40:12.076Z,21.99
2023-10-16T08:41:25.149Z,22.01
2023-10-16T08:42:37.380Z,21.99
2023-10-16T08:43:50.649Z,22.03
2023-10-16T08:44:52.984Z,22.05
2023-10-16T08:46:06.237Z,22.05
2023-10-16T08:47:33.151Z,22.08
2023-10-16T08:48:25.717Z,22.11
2023-10-16T08:49:48.045Z,22.11
2023-10-16T08:50:48.466Z,22.12
2023-10-16T08:51:50.828Z,22.15
2023-10-16T08:53:04.085Z,22.19
2023-10-16T08:54:16.272Z,22.19
2023-10-16T08:55:29.094Z,22.22
2023-10-16T08:56:31.353Z,22.23
2023-10-16T08:57:44.122Z,22.25
2023-10-16T08:58:56.370Z,22.28
2023-10-16T09:00:09.104Z,22.28
2023-10-16T09:01:11.448Z,22.29
2023-10-16T09:02:24.611Z,22.32
2023-10-16T09:03:37.017Z,22.32
2023-10-16T09:04:40.194Z,22.35
2023-10-16T09:05:52.561Z,22.36
2023-10-16T09:07:05.650Z,22.39
2023-10-16T09:08:18.007Z,22.41
2023-10-16T09:09:21.078Z,22.43
2023-10-16T09:10:33.429Z,22.42
2023-10-16T09:11:46.636Z,22.46
2023-10-16T09:12:49.259Z,22.48
2023-10-16T09:14:02.613Z,22.5
2023-10-16T09:15:14.807Z,22.5
2023-10-16T09:16:27.641Z,22.52
2023-10-16T09:17:30.078Z,22.54
2023-10-16T09:18:43.112Z,22.59
2023-10-16T09:20:05.148Z,22.62
2023-10-16T09:20:59.124Z,22.63
2023-10-16T09:22:11.297Z,22.69
2023-10-16T09:23:26.828Z,22.72
2023-10-16T09:24:30.151Z,22.73
2023-10-16T09:25:43.130Z,22.79
2023-10-16T09:26:55.419Z,22.77
2023-10-16T09:27:58.642Z,22.81
2023-10-16T09:29:10.802Z,22.88
2023-10-16T09:30:23.693Z,22.86
2023-10-16T09:31:26.249Z,22.91
2023-10-16T09:32:39.148Z,22.94
2023-10-16T09:33:51.488Z,22.97
2023-10-16T09:35:04.617Z,23.01
2023-10-16T09:36:06.860Z,23.05
2023-10-16T09:37:20.111Z,23.05
2023-10-16T09:38:32.162Z,23.11
2023-10-16T09:39:35.101Z,23.14
2023-10-16T09:40:47.202Z,23.17
2023-10-16T09:42:00.130Z,23.2
2023-10-16T09:43:12.199Z,23.23
2023-10-16T09:44:15.088Z,23.28
2023-10-16T09:45:27.195Z,23.3
2023-10-16T09:46:40.185Z,23.32
2023-10-16T09:47:42.415Z,23.37
2023-10-16T09:48:55.156Z,23.38
2023-10-16T09:50:07.383Z,23.41
2023-10-16T09:51:20.087Z,23.44
2023-10-16T09:52:22.394Z,23.48
2023-10-16T09:53:35.598Z,23.49
2023-10-16T09:54:47.653Z,23.54
2023-10-16T09:56:00.576Z,23.56
2023-10-16T09:57:02.819Z,23.61
2023-10-16T09:58:15.595Z,23.61
2023-10-16T09:59:28.002Z,23.66
2023-10-16T10:00:31.136Z,23.72
2023-10-16T10:01:43.393Z,23.72
2023-10-16T10:02:56.663Z,23.76
2023-10-16T10:03:59.162Z,23.78
2023-10-16T10:05:12.092Z,23.81
2023-10-16T10:06:24.086Z,23.83
2023-10-16T10:07:37.114Z,23.89
2023-10-16T10:08:39.269Z,23.92
2023-10-16T10:09:52.122Z,23.98
2023-10-16T10:11:11.263Z,23.99
2023-10-16T10:12:11.620Z,24.02
2023-10-16T10:13:23.673Z,24.06
2023-10-16T10:14:36.605Z,24.09
2023-10-16T10:15:38.837Z,24.11
2023-10-16T10:16:51.667Z,24.14
2023-10-16T10:18:03.865Z,24.17
2023-10-16T10:19:06.716Z,24.19
2023-10-16T10:20:18.901Z,24.23
2023-10-16T10:21:31.670Z,24.23
2023-10-16T10:22:43.795Z,24.25
2023-10-16T10:23:46.609Z,24.27
2023-10-16T10:24:58.675Z,24.32
2023-10-16T10:26:11.644Z,24.32
2023-10-16T10:27:13.859Z,24.34
2023-10-16T10:28:26.623Z,24.36
2023-10-16T10:29:38.673Z,24.37
2023-10-16T10:30:51.682Z,24.39
2023-10-16T10:31:53.924Z,24.39
2023-10-16T10:33:06.623Z,24.4
2023-10-16T10:34:18.681Z,24.43
2023-10-16T10:35:31.649Z,24.43
2023-10-16T10:36:33.987Z,24.43
2023-10-16T10:37:47.152Z,24.46
2023-10-16T10:38:59.210Z,24.46
2023-10-16T10:40:02.266Z,24.47
2023-10-16T10:41:14.441Z,24.47
2023-10-16T10:42:27.121Z,24.49
2023-10-16T10:43:29.238Z,24.49
2023-10-16T10:44:42.134Z,24.5
2023-10-16T10:45:54.151Z,24.51
2023-10-16T10:47:07.112Z,24.51
2023-10-16T10:48:09.322Z,24.54
2023-10-16T10:49:22.155Z,24.54
2023-10-16T10:50:34.346Z,24.58
2023-10-16T10:51:47.167Z,24.58
2023-10-16T10:52:49.368Z,24.6
2023-10-16T10:54:02.108Z,24.63
2023-10-16T10:55:14.143Z,24.67
2023-10-16T10:56:17.104Z,24.65
2023-10-16T10:57:29.149Z,24.67
2023-10-16T10:58:42.138Z,24.68
2023-10-16T10:59:54.357Z,24.7
2023-10-16T11:00:57.181Z,24.71
2023-10-16T11:03:22.167Z,24.75
2023-10-16T11:04:24.527Z,24.75
2023-10-16T11:05:37.630Z,24.77
2023-10-16T11:06:49.743Z,24.77
2023-10-16T11:08:02.632Z,24.8
2023-10-16T11:09:04.815Z,24.78
2023-10-16T11:10:17.693Z,24.78
2023-10-16T11:11:29.924Z,24.78
2023-10-16T11:12:33.178Z,24.8
2023-10-16T11:13:45.380Z,24.8
2023-10-16T11:14:58.341Z,24.83
2023-10-16T11:16:10.448Z,24.85
2023-10-16T11:17:13.674Z,24.84
2023-10-16T11:18:25.744Z,24.85
2023-10-16T11:19:38.680Z,24.88
2023-10-16T11:20:40.890Z,24.9
2023-10-16T11:21:53.737Z,24.91
2023-10-16T11:23:08.218Z,24.91
2023-10-16T11:24:11.657Z,24.95
2023-10-16T11:25:23.602Z,24.97
2023-10-16T11:26:36.136Z,24.97
2023-10-16T11:27:38.355Z,25.0
2023-10-16T11:28:51.132Z,25.02
2023-10-16T11:30:03.172Z,25.02
2023-10-16T11:31:16.928Z,25.02
2023-10-16T11:32:19.297Z,25.05
2023-10-16T11:33:32.138Z,25.07
2023-10-16T11:34:44.155Z,25.07
2023-10-16T11:35:47.215Z,25.07
2023-10-16T11:36:59.156Z,25.08
2023-10-16T11:38:12.158Z,25.11
2023-10-16T11:39:24.226Z,25.11
2023-10-16T11:40:27.152Z,25.11
2023-10-16T11:41:39.108Z,25.12
2023-10-16T11:42:51.699Z,25.11
2023-10-16T11:43:53.872Z,25.12
2023-10-16T11:45:06.651Z,25.11
2023-10-16T11:46:18.785Z,25.08
2023-10-16T11:47:31.715Z,25.12
2023-10-16T11:48:33.957Z,25.12
2023-10-16T11:49:47.974Z,25.12
2023-10-16T11:50:59.978Z,25.12
2023-10-16T11:52:03.166Z,25.14
2023-10-16T11:53:15.124Z,25.15
2023-10-16T11:54:28.503Z,25.14
2023-10-16T11:55:30.831Z,25.12
2023-10-16T11:56:43.677Z,25.12
2023-10-16T11:57:55.713Z,25.16
2023-10-16T11:59:08.675Z,25.15
2023-10-16T12:00:10.985Z,25.11
2023-10-16T12:01:33.361Z,25.14
2023-10-16T12:02:35.393Z,25.14
2023-10-16T12:03:38.229Z,25.12
2023-10-16T12:04:50.446Z,25.14
2023-10-16T12:06:03.689Z,25.15
2023-10-16T12:07:16.201Z,25.11
2023-10-16T12:08:19.154Z,25.11
2023-10-16T12:09:31.123Z,25.12
2023-10-16T12:10:44.154Z,25.12
2023-10-16T12:11:46.305Z,25.12
2023-10-16T12:12:59.177Z,25.11
2023-10-16T12:14:11.278Z,25.11
2023-10-16T12:15:14.259Z,25.11
2023-10-16T12:16:35.540Z,25.11
2023-10-16T12:17:41.993Z,25.07
2023-10-16T12:18:49.397Z,25.07
2023-10-16T12:19:52.642Z,25.12
2023-10-16T12:21:04.711Z,25.07
2023-10-16T12:22:17.721Z,25.07
2023-10-16T12:23:29.689Z,25.07
2023-10-16T12:24:32.764Z,25.08
2023-10-16T12:25:49.997Z,25.08
2023-10-16T12:26:52.694Z,25.07
2023-10-16T12:28:04.728Z,25.05
2023-10-16T12:29:17.688Z,25.08
2023-10-16T12:30:19.874Z,25.05
2023-10-16T12:31:32.641Z,25.07
2023-10-16T12:32:44.742Z,25.04
2023-10-16T12:33:47.812Z,25.01
2023-10-16T12:34:59.930Z,25.02
2023-10-16T12:36:13.194Z,25.01
2023-10-16T12:37:15.350Z,25.02
2023-10-16T12:38:28.189Z,25.01
2023-10-16T12:39:40.225Z,25.0
2023-10-16T12:40:53.197Z,24.98
2023-10-16T12:41:55.530Z,24.98
2023-10-16T12:43:08.775Z,25.0
2023-10-16T12:44:20.979Z,24.98
2023-10-16T12:45:23.703Z,24.95
2023-10-16T12:46:35.716Z,24.94
2023-10-16T12:47:51.061Z,24.97
2023-10-16T12:48:53.888Z,24.94
2023-10-16T12:50:06.664Z,24.92
2023-10-16T12:51:18.676Z,24.94
2023-10-16T12:52:21.706Z,24.91
2023-10-16T12:53:43.631Z,24.92
2023-10-16T12:54:46.762Z,24.92
2023-10-16T12:55:49.103Z,24.9
2023-10-16T12:57:01.771Z,24.94
2023-10-16T12:58:13.834Z,24.92
2023-10-16T12:59:28.196Z,24.91
2023-10-16T13:00:30.343Z,24.88
2023-10-16T13:01:43.183Z,24.88
2023-10-16T13:02:55.274Z,24.91
2023-10-16T13:03:58.732Z,24.88
2023-10-16T13:05:10.965Z,24.88
2023-10-16T13:06:23.669Z,24.88
2023-10-16T13:07:39.251Z,24.87
2023-10-16T13:08:35.199Z,24.88
2023-10-16T13:09:47.326Z,24.87
2023-10-16T13:11:00.165Z,24.9
2023-10-16T13:12:12.210Z,24.88
2023-10-16T13:13:15.249Z,24.88
2023-10-16T13:14:27.547Z,24.88
2023-10-16T13:15:40.790Z,24.88
2023-10-16T13:16:42.973Z,24.9
2023-10-16T13:17:55.717Z,24.9
2023-10-16T13:19:08.011Z,24.88
2023-10-16T13:20:21.696Z,24.91
2023-10-16T13:21:23.958Z,24.88
2023-10-16T13:22:36.704Z,24.88
2023-10-16T13:23:48.731Z,24.88
2023-10-16T13:24:51.770Z,24.9
2023-10-16T13:26:03.949Z,24.91
2023-10-16T13:27:16.710Z,24.87
2023-10-16T13:28:18.913Z,24.88
2023-10-16T13:29:31.680Z,24.9
2023-10-16T13:30:43.687Z,24.9
2023-10-16T13:31:56.702Z,24.9
2023-10-16T13:32:58.963Z,24.9
2023-10-16T13:34:11.727Z,24.91
2023-10-16T13:35:23.837Z,24.9
2023-10-16T13:36:36.762Z,24.87
2023-10-16T13:37:43.638Z,24.87
2023-10-16T13:38:46.722Z,24.88
2023-10-16T13:39:58.749Z,24.9
2023-10-16T13:41:11.704Z,24.9
2023-10-16T13:42:23.655Z,24.88
2023-10-16T13:43:26.668Z,24.9
2023-10-16T13:44:38.684Z,24.91
2023-10-16T13:45:51.700Z,24.88
2023-10-16T13:47:03.822Z,24.9
2023-10-16T13:48:06.740Z,24.87
2023-10-16T13:49:18.966Z,24.9
2023-10-16T13:50:31.677Z,24.9
2023-10-16T13:51:33.877Z,24.87
2023-10-16T13:52:46.724Z,24.87
2023-10-16T13:53:58.717Z,24.9
2023-10-16T13:55:11.899Z,24.9
2023-10-16T13:56:14.070Z,24.88
2023-10-16T13:57:26.691Z,24.88
2023-10-16T13:58:38.702Z,24.9
2023-10-16T13:59:51.711Z,24.88
2023-10-16T14:00:53.833Z,24.87
2023-10-16T14:02:07.218Z,24.88
2023-10-16T14:03:19.282Z,24.88
2023-10-16T14:04:22.207Z,24.9
2023-10-16T14:05:34.240Z,24.91
2023-10-16T14:06:47.224Z,24.88
2023-10-16T14:07:59.250Z,24.87
2023-10-16T14:09:02.201Z,24.91
2023-10-16T14:10:14.244Z,24.88
2023-10-16T14:11:27.191Z,24.88
2023-10-16T14:12:29.376Z,24.87
2023-10-16T14:13:42.211Z,24.9
2023-10-16T14:14:55.642Z,24.85
2023-10-16T14:16:08.764Z,24.87
2023-10-16T14:17:11.235Z,24.87
2023-10-16T14:18:24.200Z,24.87
2023-10-16T14:19:36.246Z,24.88
2023-10-16T14:20:39.215Z,24.87
2023-10-16T14:21:52.900Z,24.88
2023-10-16T14:23:07.233Z,24.83
2023-10-16T14:24:09.414Z,24.85
2023-10-16T14:25:22.229Z,24.87
2023-10-16T14:26:34.254Z,24.85
2023-10-16T14:27:38.712Z,24.84
2023-10-16T14:28:51.139Z,24.81
2023-10-16T14:30:05.633Z,24.83
2023-10-16T14:31:07.928Z,24.83
2023-10-16T14:32:20.780Z,24.85
2023-10-16T14:33:32.999Z,24.84
2023-10-16T14:34:37.592Z,24.83
2023-10-16T14:35:49.712Z,24.83
2023-10-16T14:37:02.747Z,24.8
2023-10-16T14:38:04.979Z,24.8
2023-10-16T14:39:17.715Z,24.83
2023-10-16T14:40:29.715Z,24.81
2023-10-16T14:41:42.732Z,24.8
2023-10-16T14:42:44.961Z,24.78
2023-10-16T14:43:58.508Z,24.8
2023-10-16T14:45:10.711Z,24.78
2023-10-16T14:46:13.854Z,24.77
2023-10-16T14:47:25.996Z,24.75
2023-10-16T14:48:39.012Z,24.75
2023-10-16T14:49:41.413Z,24.75
2023-10-16T14:50:54.232Z,24.75
2023-10-16T14:52:06.289Z,24.74
2023-10-16T14:53:19.701Z,24.75
2023-10-16T14:54:21.861Z,24.71
2023-10-16T14:55:34.794Z,24.71
2023-10-16T14:56:47.196Z,24.71
2023-10-16T14:58:07.894Z,24.68
2023-10-16T15:00:13.343Z,24.67
2023-10-16T15:01:25.490Z,24.67
2023-10-16T15:02:38.918Z,24.67
2023-10-16T15:03:41.285Z,24.64
2023-10-16T15:04:55.955Z,24.61
2023-10-16T15:05:58.300Z,24.61